Time;durP1;ratioP1;P1;durP2;ratioP2;P2;SDS_P1;SDS_P2;PMS_P1;PMS_P2;Temp;Humidity;BMP_temperature;BMP_pressure;BME280_temperature;BME280_humidity;BME280_pressure;Samples;Min_cycle;Max_cycle;Signal;HPM_P1;HPM_P2
2022/05/16 00:00:16;;;;;;;4.45;2.30;;;;;;;;;;5026722;28;20081;-72
2022/05/16 00:02:45;;;;;;;4.30;2.60;;;;;;;;;;5016076;28;20132;-72
2022/05/16 00:05:13;;;;;;;4.95;2.63;;;;;;;;;;5019808;28;20365;-72
2022/05/16 00:07:42;;;;;;;4.88;2.60;;;;;;;;;;5026896;28;20077;-73
2022/05/16 00:10:11;;;;;;;5.03;2.75;;;;;;;;;;5027771;28;20124;-72
2022/05/16 00:12:39;;;;;;;4.78;2.60;;;;;;;;;;5023665;28;20045;-73
2022/05/16 00:15:09;;;;;;;4.68;2.78;;;;;;;;;;5028500;28;20085;-72
2022/05/16 00:17:38;;;;;;;4.97;2.42;;;;;;;;;;5028433;28;20087;-72
2022/05/16 00:20:07;;;;;;;6.18;2.72;;;;;;;;;;5014455;28;20076;-72
2022/05/16 00:22:36;;;;;;;4.75;2.47;;;;;;;;;;5018092;28;20072;-74
2022/05/16 00:25:05;;;;;;;4.57;2.95;;;;;;;;;;5025108;28;20112;-72
2022/05/16 00:27:34;;;;;;;3.85;2.50;;;;;;;;;;5027797;28;20080;-72
2022/05/16 00:30:03;;;;;;;3.80;2.45;;;;;;;;;;5024880;28;20049;-72
2022/05/16 00:32:32;;;;;;;7.10;2.88;;;;;;;;;;5025954;28;20275;-74
2022/05/16 00:35:01;;;;;;;5.28;2.67;;;;;;;;;;5021286;28;20494;-74
2022/05/16 00:37:29;;;;;;;4.00;2.22;;;;;;;;;;5027834;28;20132;-72
2022/05/16 00:39:58;;;;;;;4.30;2.55;;;;;;;;;;5023767;28;20049;-72
2022/05/16 00:42:26;;;;;;;5.70;2.78;;;;;;;;;;5026088;28;20139;-72
2022/05/16 00:44:54;;;;;;;5.88;2.65;;;;;;;;;;5022678;28;20053;-72
2022/05/16 00:47:23;;;;;;;3.35;2.50;;;;;;;;;;5025835;28;20076;-72
2022/05/16 00:49:53;;;;;;;5.15;2.67;;;;;;;;;;5025218;28;20533;-72
2022/05/16 00:52:25;;;;;;;4.97;2.95;;;;;;;;;;5016205;28;20176;-71
2022/05/16 00:54:55;;;;;;;6.45;2.88;;;;;;;;;;5017422;28;20134;-72
2022/05/16 00:57:25;;;;;;;4.43;2.88;;;;;;;;;;5018354;28;20045;-72
2022/05/16 00:59:56;;;;;;;3.90;2.83;;;;;;;;;;5028812;28;20553;-72
2022/05/16 01:05:11;;;;;;;2.95;2.40;;;;;;;;;;5023830;28;20489;-72
2022/05/16 01:07:42;;;;;;;4.72;2.60;;;;;;;;;;5022429;28;20077;-72
2022/05/16 01:10:12;;;;;;;5.68;2.80;;;;;;;;;;5025411;28;20045;-72
2022/05/16 01:12:41;;;;;;;4.97;2.90;;;;;;;;;;5028216;28;20077;-72
2022/05/16 01:15:12;;;;;;;4.55;3.10;;;;;;;;;;5026055;28;20124;-72
2022/05/16 01:17:40;;;;;;;4.43;2.53;;;;;;;;;;5033518;28;20501;-72
2022/05/16 01:20:10;;;;;;;4.85;2.88;;;;;;;;;;5028484;28;20041;-72
2022/05/16 01:22:40;;;;;;;4.43;2.50;;;;;;;;;;5020434;28;20532;-72
2022/05/16 01:25:10;;;;;;;4.65;2.85;;;;;;;;;;5029213;28;20041;-71
2022/05/16 01:27:46;;;;;;;3.85;2.65;;;;;;;;;;5031940;28;20111;-72
2022/05/16 01:30:15;;;;;;;6.20;3.08;;;;;;;;;;5016723;28;20053;-72
2022/05/16 01:32:44;;;;;;;7.55;3.13;;;;;;;;;;5031023;28;20104;-72
2022/05/16 01:35:12;;;;;;;8.05;3.10;;;;;;;;;;5020906;28;20076;-73
2022/05/16 01:40:28;;;;;;;5.20;3.10;;;;;;;;;;5029402;28;20045;-72
2022/05/16 01:42:56;;;;;;;5.05;2.78;;;;;;;;;;5031935;28;20084;-71
2022/05/16 01:45:25;;;;;;;4.45;2.60;;;;;;;;;;5027206;28;20049;-72
2022/05/16 01:47:53;;;;;;;4.78;2.80;;;;;;;;;;5022188;28;20144;-73
2022/05/16 01:50:22;;;;;;;4.55;2.70;;;;;;;;;;5027882;28;20274;-72
2022/05/16 01:52:51;;;;;;;4.53;3.05;;;;;;;;;;5026205;28;20393;-71
2022/05/16 01:55:20;;;;;;;5.45;3.00;;;;;;;;;;5029467;28;20125;-72
2022/05/16 01:57:49;;;;;;;3.88;3.00;;;;;;;;;;5026536;28;20049;-72
2022/05/16 02:00:18;;;;;;;4.20;3.13;;;;;;;;;;5033217;28;20062;-72
2022/05/16 02:02:46;;;;;;;6.95;3.30;;;;;;;;;;5030689;28;20046;-72
2022/05/16 02:05:15;;;;;;;4.15;2.60;;;;;;;;;;5027588;28;20409;-72
2022/05/16 02:07:45;;;;;;;3.95;3.10;;;;;;;;;;5023690;28;20046;-73
2022/05/16 02:10:16;;;;;;;6.03;2.83;;;;;;;;;;5015132;28;20172;-72
2022/05/16 02:12:45;;;;;;;3.92;2.90;;;;;;;;;;5025170;28;20088;-72
2022/05/16 02:15:14;;;;;;;4.78;3.17;;;;;;;;;;5021568;28;20585;-73
2022/05/16 02:17:43;;;;;;;4.97;3.45;;;;;;;;;;5023465;28;20542;-72
2022/05/16 02:20:12;;;;;;;5.53;3.35;;;;;;;;;;5026346;28;20157;-72
2022/05/16 02:25:28;;;;;;;5.68;3.47;;;;;;;;;;5038334;28;20721;-71
2022/05/16 02:27:56;;;;;;;5.25;3.38;;;;;;;;;;5032141;28;20147;-72
2022/05/16 02:30:24;;;;;;;4.97;2.88;;;;;;;;;;5023938;28;20129;-72
2022/05/16 02:32:53;;;;;;;4.45;3.05;;;;;;;;;;5026716;28;20072;-72
2022/05/16 02:35:21;;;;;;;4.57;3.10;;;;;;;;;;5022750;28;20402;-72
2022/05/16 02:37:49;;;;;;;4.30;3.22;;;;;;;;;;5020598;28;20128;-71
2022/05/16 02:40:18;;;;;;;2.95;2.63;;;;;;;;;;5026123;28;20076;-71
2022/05/16 02:42:47;;;;;;;4.68;3.00;;;;;;;;;;5024226;28;20074;-72
2022/05/16 02:45:16;;;;;;;6.47;3.65;;;;;;;;;;5028700;28;20055;-71
2022/05/16 02:47:45;;;;;;;5.32;3.22;;;;;;;;;;5024929;28;20046;-72
2022/05/16 02:50:13;;;;;;;6.60;3.40;;;;;;;;;;5019788;28;20042;-72
2022/05/16 02:52:41;;;;;;;4.45;3.28;;;;;;;;;;5017195;28;20077;-72
2022/05/16 02:55:10;;;;;;;5.03;3.20;;;;;;;;;;5021473;28;20501;-72
2022/05/16 02:57:38;;;;;;;3.83;3.13;;;;;;;;;;5022558;28;20215;-71
2022/05/16 03:00:09;;;;;;;4.47;2.72;;;;;;;;;;5024507;28;20141;-71
2022/05/16 03:02:38;;;;;;;5.72;2.78;;;;;;;;;;5025213;28;20084;-72
2022/05/16 03:05:07;;;;;;;4.17;3.17;;;;;;;;;;4986326;28;1118680;-72
2022/05/16 03:07:36;;;;;;;5.15;3.00;;;;;;;;;;5017668;28;20348;-72
2022/05/16 03:10:05;;;;;;;3.80;2.85;;;;;;;;;;5025947;28;20119;-72
2022/05/16 03:12:33;;;;;;;6.75;3.10;;;;;;;;;;5022317;28;20072;-73
2022/05/16 03:15:02;;;;;;;5.07;3.20;;;;;;;;;;5021184;28;20132;-72
2022/05/16 03:17:32;;;;;;;5.40;3.83;;;;;;;;;;5023252;28;20528;-72
2022/05/16 03:20:00;;;;;;;7.03;3.15;;;;;;;;;;5021215;28;20462;-72
2022/05/16 03:22:31;;;;;;;4.95;2.92;;;;;;;;;;5022576;28;20454;-72
2022/05/16 03:24:59;;;;;;;4.78;2.92;;;;;;;;;;5026839;28;20091;-72
2022/05/16 03:27:28;;;;;;;5.05;2.92;;;;;;;;;;5022553;28;20136;-72
2022/05/16 03:29:56;;;;;;;6.43;3.40;;;;;;;;;;5028309;28;20560;-72
2022/05/16 03:32:25;;;;;;;3.75;2.90;;;;;;;;;;5024833;28;20137;-72
2022/05/16 03:34:54;;;;;;;5.80;3.20;;;;;;;;;;5021555;28;20225;-73
2022/05/16 03:37:23;;;;;;;5.20;3.03;;;;;;;;;;5019977;28;20042;-71
2022/05/16 03:42:46;;;;;;;4.97;2.80;;;;;;;;;;4991318;28;20132;-71
2022/05/16 03:45:14;;;;;;;4.30;3.10;;;;;;;;;;5026967;28;20049;-72
2022/05/16 03:47:43;;;;;;;6.15;3.38;;;;;;;;;;5028089;28;20460;-72
2022/05/16 03:50:13;;;;;;;6.93;3.50;;;;;;;;;;5022994;28;20465;-72
2022/05/16 03:52:42;;;;;;;5.40;3.78;;;;;;;;;;5025627;28;20076;-72
2022/05/16 03:55:12;;;;;;;5.50;3.40;;;;;;;;;;5020919;28;20125;-73
2022/05/16 03:57:41;;;;;;;6.95;3.13;;;;;;;;;;5019500;28;20076;-71
2022/05/16 04:00:12;;;;;;;5.20;3.60;;;;;;;;;;5012789;28;20108;-72
2022/05/16 04:02:42;;;;;;;4.63;2.80;;;;;;;;;;5025221;28;20053;-71
2022/05/16 04:05:11;;;;;;;6.32;2.72;;;;;;;;;;5018725;28;20523;-71
2022/05/16 04:07:41;;;;;;;7.22;3.17;;;;;;;;;;5021076;28;20160;-72
2022/05/16 04:10:10;;;;;;;6.80;3.25;;;;;;;;;;5022299;28;20465;-72
2022/05/16 04:12:38;;;;;;;8.30;3.17;;;;;;;;;;5016202;28;20085;-72
2022/05/16 04:15:07;;;;;;;5.30;3.10;;;;;;;;;;5028727;28;20048;-72
2022/05/16 04:17:36;;;;;;;5.25;3.03;;;;;;;;;;5027130;28;20516;-73
2022/05/16 04:20:05;;;;;;;5.28;3.05;;;;;;;;;;5021823;28;20120;-72
2022/05/16 04:22:34;;;;;;;5.55;3.38;;;;;;;;;;5028408;28;20080;-72
2022/05/16 04:25:04;;;;;;;5.32;3.30;;;;;;;;;;5024993;28;20077;-72
2022/05/16 04:27:33;;;;;;;5.97;3.35;;;;;;;;;;5022405;28;20129;-71
2022/05/16 04:30:01;;;;;;;7.07;3.25;;;;;;;;;;5026676;28;20489;-71
2022/05/16 04:32:29;;;;;;;4.93;3.45;;;;;;;;;;5019720;28;20060;-71
2022/05/16 04:34:58;;;;;;;4.13;3.10;;;;;;;;;;5019058;28;20139;-72
2022/05/16 04:37:31;;;;;;;6.32;3.28;;;;;;;;;;5012905;28;20383;-72
2022/05/16 04:40:00;;;;;;;6.18;3.47;;;;;;;;;;5021939;28;20088;-72
2022/05/16 04:42:41;;;;;;;7.20;3.67;;;;;;;;;;5026338;28;20046;-72
2022/05/16 04:45:11;;;;;;;7.35;3.30;;;;;;;;;;5022336;28;20041;-71
2022/05/16 04:47:39;;;;;;;5.55;3.53;;;;;;;;;;5019851;28;20139;-71
2022/05/16 04:50:08;;;;;;;4.65;3.25;;;;;;;;;;5027680;28;20057;-72
2022/05/16 04:52:36;;;;;;;4.55;3.00;;;;;;;;;;5006682;28;20056;-73
2022/05/16 04:55:05;;;;;;;6.50;2.92;;;;;;;;;;5018098;28;20140;-73
2022/05/16 04:57:35;;;;;;;7.57;3.65;;;;;;;;;;5024207;28;20046;-73
2022/05/16 05:00:03;;;;;;;5.32;3.20;;;;;;;;;;5020679;28;20080;-74
2022/05/16 05:02:32;;;;;;;8.43;3.42;;;;;;;;;;5021405;28;20551;-72
2022/05/16 05:05:00;;;;;;;6.25;3.28;;;;;;;;;;5022808;28;20057;-71
2022/05/16 05:07:28;;;;;;;5.47;3.13;;;;;;;;;;5024113;28;20050;-71
2022/05/16 05:15:32;;;;;;;5.50;3.20;;;;;;;;;;4993118;28;20050;-72
2022/05/16 05:18:00;;;;;;;7.38;3.78;;;;;;;;;;5019565;28;20168;-71
2022/05/16 05:20:29;;;;;;;5.05;3.10;;;;;;;;;;5028519;28;20116;-72
2022/05/16 05:22:57;;;;;;;4.47;3.40;;;;;;;;;;5025717;28;20092;-72
2022/05/16 05:25:25;;;;;;;5.57;3.20;;;;;;;;;;5024449;28;20077;-74
2022/05/16 05:27:55;;;;;;;7.20;3.53;;;;;;;;;;5026103;28;20057;-72
2022/05/16 05:30:25;;;;;;;9.07;3.97;;;;;;;;;;5026845;28;20092;-72
2022/05/16 05:32:54;;;;;;;4.63;3.17;;;;;;;;;;5024030;28;20092;-71
2022/05/16 05:35:22;;;;;;;3.97;2.80;;;;;;;;;;5040395;28;20473;-72
2022/05/16 05:37:51;;;;;;;7.32;3.15;;;;;;;;;;5023523;28;20176;-71
2022/05/16 05:40:19;;;;;;;4.90;3.10;;;;;;;;;;5025785;28;20140;-71
2022/05/16 05:42:48;;;;;;;6.10;2.92;;;;;;;;;;5018140;28;20081;-72
2022/05/16 05:45:18;;;;;;;6.18;3.50;;;;;;;;;;5027099;28;20045;-75
2022/05/16 05:47:47;;;;;;;7.05;4.00;;;;;;;;;;5012428;28;20159;-74
2022/05/16 05:50:16;;;;;;;5.70;3.35;;;;;;;;;;5026702;28;20112;-74
2022/05/16 05:52:44;;;;;;;5.18;3.08;;;;;;;;;;5028298;28;20581;-75
2022/05/16 05:55:12;;;;;;;4.00;3.38;;;;;;;;;;5028170;28;20041;-75
2022/05/16 05:57:41;;;;;;;7.40;3.80;;;;;;;;;;5032826;28;20050;-75
2022/05/16 06:00:11;;;;;;;8.93;3.33;;;;;;;;;;5034587;28;20577;-75
2022/05/16 06:02:42;;;;;;;7.20;3.83;;;;;;;;;;5022036;28;20045;-75
2022/05/16 06:05:12;;;;;;;6.97;3.78;;;;;;;;;;5021791;28;20050;-75
2022/05/16 06:07:40;;;;;;;4.22;3.10;;;;;;;;;;5028979;28;20421;-75
2022/05/16 06:10:10;;;;;;;5.63;3.35;;;;;;;;;;5034522;28;20081;-75
2022/05/16 06:12:39;;;;;;;6.80;3.55;;;;;;;;;;5035466;28;20059;-75
2022/05/16 06:15:09;;;;;;;8.15;4.10;;;;;;;;;;5031818;28;20064;-75
2022/05/16 06:17:38;;;;;;;8.32;3.60;;;;;;;;;;5020183;28;20049;-75
2022/05/16 06:20:10;;;;;;;8.73;4.22;;;;;;;;;;5030626;28;20145;-75
2022/05/16 06:22:38;;;;;;;10.05;4.15;;;;;;;;;;5032865;28;20132;-75
2022/05/16 06:27:53;;;;;;;7.60;4.43;;;;;;;;;;5031377;28;20112;-75
2022/05/16 06:30:22;;;;;;;9.90;4.05;;;;;;;;;;5032539;28;20099;-76
2022/05/16 06:32:50;;;;;;;7.18;4.35;;;;;;;;;;5031680;28;20132;-76
2022/05/16 06:35:21;;;;;;;8.75;3.75;;;;;;;;;;5032241;28;20093;-75
2022/05/16 06:37:49;;;;;;;5.40;4.03;;;;;;;;;;5015890;28;20164;-75
2022/05/16 06:40:18;;;;;;;6.35;3.75;;;;;;;;;;5003710;28;20132;-75
2022/05/16 06:42:46;;;;;;;11.25;4.53;;;;;;;;;;5032062;28;20046;-75
2022/05/16 06:45:15;;;;;;;6.05;3.55;;;;;;;;;;5031186;28;20494;-76
2022/05/16 06:47:44;;;;;;;11.23;3.55;;;;;;;;;;5031559;28;20083;-75
2022/05/16 06:50:13;;;;;;;9.82;4.07;;;;;;;;;;5031387;28;20083;-75
2022/05/16 06:52:43;;;;;;;8.23;4.20;;;;;;;;;;5032465;28;20084;-75
2022/05/16 06:55:12;;;;;;;8.63;3.75;;;;;;;;;;5029288;28;20107;-75
2022/05/16 06:57:41;;;;;;;8.52;3.67;;;;;;;;;;5031665;28;20569;-76
2022/05/16 07:00:15;;;;;;;6.32;3.70;;;;;;;;;;5032184;28;20041;-75
2022/05/16 07:02:43;;;;;;;7.72;4.10;;;;;;;;;;5011713;28;20049;-76
2022/05/16 07:05:32;;;;;;;7.38;4.15;;;;;;;;;;5022574;28;20548;-76
2022/05/16 07:08:02;;;;;;;9.27;4.47;;;;;;;;;;5024930;28;20096;-76
2022/05/16 07:10:31;;;;;;;10.27;3.83;;;;;;;;;;5028224;28;20049;-75
2022/05/16 07:13:00;;;;;;;8.35;3.22;;;;;;;;;;5015231;28;20053;-75
2022/05/16 07:15:28;;;;;;;4.35;3.20;;;;;;;;;;5022580;28;20046;-75
2022/05/16 07:17:56;;;;;;;7.43;4.03;;;;;;;;;;5029717;28;20579;-75
2022/05/16 07:20:25;;;;;;;6.78;3.33;;;;;;;;;;5001524;28;20167;-76
2022/05/16 07:22:53;;;;;;;6.80;4.40;;;;;;;;;;5021129;28;20068;-76
2022/05/16 07:25:25;;;;;;;6.38;3.45;;;;;;;;;;5018668;28;20053;-76
2022/05/16 07:27:59;;;;;;;9.05;3.97;;;;;;;;;;5032093;28;20237;-75
2022/05/16 07:30:29;;;;;;;5.22;3.47;;;;;;;;;;5024720;28;20464;-75
2022/05/16 07:32:57;;;;;;;8.32;3.72;;;;;;;;;;5030030;28;20116;-75
2022/05/16 07:35:28;;;;;;;4.55;3.00;;;;;;;;;;5030080;28;20076;-74
2022/05/16 07:37:56;;;;;;;5.90;3.10;;;;;;;;;;5031214;28;20061;-75
2022/05/16 07:40:27;;;;;;;4.75;3.05;;;;;;;;;;5031025;28;20072;-75
2022/05/16 07:42:56;;;;;;;5.00;3.08;;;;;;;;;;5029476;28;20048;-75
2022/05/16 07:45:25;;;;;;;4.78;2.70;;;;;;;;;;5024290;28;20485;-75
2022/05/16 07:47:54;;;;;;;5.25;2.78;;;;;;;;;;5026795;28;20099;-75
2022/05/16 07:50:23;;;;;;;5.38;3.20;;;;;;;;;;5031080;28;20136;-75
2022/05/16 07:52:52;;;;;;;4.03;2.47;;;;;;;;;;5047825;28;20115;-75
2022/05/16 07:55:22;;;;;;;3.80;2.80;;;;;;;;;;5028306;28;20424;-74
2022/05/16 07:57:52;;;;;;;3.63;2.33;;;;;;;;;;5036690;28;20077;-74
2022/05/16 08:00:22;;;;;;;4.72;2.63;;;;;;;;;;5041728;28;20076;-74
2022/05/16 08:02:51;;;;;;;4.93;2.63;;;;;;;;;;5032449;28;20045;-74
2022/05/16 08:05:21;;;;;;;3.95;2.40;;;;;;;;;;5028309;28;20072;-74
2022/05/16 08:10:37;;;;;;;4.53;2.47;;;;;;;;;;5037416;28;20119;-74
2022/05/16 08:13:08;;;;;;;4.38;2.28;;;;;;;;;;5033964;28;20059;-73
2022/05/16 08:15:37;;;;;;;4.93;2.47;;;;;;;;;;5026002;28;20061;-74
2022/05/16 08:18:06;;;;;;;2.33;1.55;;;;;;;;;;5028062;28;20136;-73
2022/05/16 08:20:37;;;;;;;3.17;1.98;;;;;;;;;;5049136;28;20055;-73
2022/05/16 08:23:06;;;;;;;2.17;1.55;;;;;;;;;;5035643;28;20110;-74
2022/05/16 08:25:36;;;;;;;4.57;1.45;;;;;;;;;;5037744;28;20050;-73
2022/05/16 08:28:05;;;;;;;2.08;1.40;;;;;;;;;;5037407;28;20069;-73
2022/05/16 08:30:35;;;;;;;2.55;1.25;;;;;;;;;;5031126;28;20050;-73
2022/05/16 08:33:04;;;;;;;3.97;1.77;;;;;;;;;;5032250;28;20067;-74
2022/05/16 08:35:33;;;;;;;2.08;1.20;;;;;;;;;;5036266;28;20132;-75
2022/05/16 08:40:54;;;;;;;4.47;1.20;;;;;;;;;;5033103;28;20468;-73
2022/05/16 08:43:32;;;;;;;1.70;1.27;;;;;;;;;;5029024;28;20041;-72
2022/05/16 08:46:08;;;;;;;2.70;1.42;;;;;;;;;;5029052;28;20057;-71
2022/05/16 08:48:38;;;;;;;4.50;1.67;;;;;;;;;;5036446;28;20049;-71
2022/05/16 08:51:10;;;;;;;2.50;1.50;;;;;;;;;;5030224;28;20084;-72
2022/05/16 08:53:42;;;;;;;1.88;1.60;;;;;;;;;;5026979;28;20053;-71
2022/05/16 08:56:13;;;;;;;4.25;1.98;;;;;;;;;;5028844;28;20045;-72
2022/05/16 08:58:45;;;;;;;2.40;1.65;;;;;;;;;;5028426;28;20141;-72
2022/05/16 09:01:18;;;;;;;6.55;1.63;;;;;;;;;;5029961;28;20061;-72
2022/05/16 09:03:48;;;;;;;2.53;1.73;;;;;;;;;;5029642;28;20062;-73
2022/05/16 09:06:19;;;;;;;4.55;1.40;;;;;;;;;;5028698;28;20095;-73
2022/05/16 09:08:50;;;;;;;3.88;1.38;;;;;;;;;;5012606;28;20301;-75
2022/05/16 09:11:21;;;;;;;2.40;1.20;;;;;;;;;;5026359;28;20049;-73
2022/05/16 09:13:52;;;;;;;3.90;1.30;;;;;;;;;;5029299;28;20095;-72
2022/05/16 09:16:29;;;;;;;2.58;1.50;;;;;;;;;;5017331;28;20458;-72
2022/05/16 09:19:01;;;;;;;3.85;1.58;;;;;;;;;;5027185;28;20100;-72
2022/05/16 09:21:36;;;;;;;3.33;1.63;;;;;;;;;;5027326;28;20042;-73
2022/05/16 09:24:08;;;;;;;2.58;1.33;;;;;;;;;;5020567;28;20057;-72
2022/05/16 09:26:40;;;;;;;3.55;1.70;;;;;;;;;;5024606;28;20049;-72
2022/05/16 09:29:14;;;;;;;3.55;1.40;;;;;;;;;;5015817;28;20053;-72
2022/05/16 09:31:45;;;;;;;3.97;2.40;;;;;;;;;;5031520;28;20050;-73
2022/05/16 09:34:20;;;;;;;2.95;1.40;;;;;;;;;;5031026;28;20047;-71
2022/05/16 09:36:50;;;;;;;4.78;1.77;;;;;;;;;;5016799;28;20132;-72
2022/05/16 09:39:20;;;;;;;3.97;2.47;;;;;;;;;;5026361;28;20069;-73
2022/05/16 09:41:55;;;;;;;3.03;1.80;;;;;;;;;;5032411;28;20053;-71
2022/05/16 09:44:26;;;;;;;3.70;1.83;;;;;;;;;;5021030;28;20405;-72
2022/05/16 09:47:10;;;;;;;2.78;1.80;;;;;;;;;;5031813;28;20045;-72
2022/05/16 09:49:40;;;;;;;3.13;1.90;;;;;;;;;;4998149;28;20404;-72
2022/05/16 09:52:15;;;;;;;3.40;1.83;;;;;;;;;;5032295;28;20053;-71
2022/05/16 09:54:45;;;;;;;3.88;1.50;;;;;;;;;;5031559;28;20083;-71
2022/05/16 09:57:19;;;;;;;2.90;1.58;;;;;;;;;;5032897;28;20049;-71
2022/05/16 09:59:50;;;;;;;2.85;1.77;;;;;;;;;;5021938;28;20561;-72
2022/05/16 10:02:24;;;;;;;3.17;1.40;;;;;;;;;;5017666;28;20060;-71
2022/05/16 10:04:56;;;;;;;1.60;1.20;;;;;;;;;;5015650;28;20058;-71
2022/05/16 10:07:28;;;;;;;1.63;1.20;;;;;;;;;;5029890;28;20053;-72
2022/05/16 10:09:57;;;;;;;3.80;1.63;;;;;;;;;;5022065;28;20124;-71
2022/05/16 10:12:27;;;;;;;2.90;1.70;;;;;;;;;;5028986;28;20107;-71
2022/05/16 10:14:55;;;;;;;3.58;1.33;;;;;;;;;;5049537;28;20049;-71
2022/05/16 10:17:27;;;;;;;2.65;1.50;;;;;;;;;;5028654;28;20050;-71
2022/05/16 10:20:00;;;;;;;3.08;1.35;;;;;;;;;;5036964;28;20103;-71
2022/05/16 10:22:30;;;;;;;2.45;1.73;;;;;;;;;;5046135;28;20132;-72
2022/05/16 10:25:19;;;;;;;4.53;1.50;;;;;;;;;;5030665;28;20050;-72
2022/05/16 10:27:50;;;;;;;1.77;1.08;;;;;;;;;;5029327;28;20057;-77
2022/05/16 10:30:21;;;;;;;1.65;1.08;;;;;;;;;;5017881;28;20067;-75
2022/05/16 10:35:45;;;;;;;2.85;1.30;;;;;;;;;;5019066;28;20052;-72
2022/05/16 10:38:19;;;;;;;3.20;1.35;;;;;;;;;;5017911;28;20125;-74
2022/05/16 10:40:49;;;;;;;1.85;1.23;;;;;;;;;;5030362;28;20112;-75
2022/05/16 10:43:26;;;;;;;2.42;1.27;;;;;;;;;;5037803;28;20053;-72
2022/05/16 10:45:57;;;;;;;3.42;1.10;;;;;;;;;;5028326;28;20349;-72
2022/05/16 10:48:32;;;;;;;3.05;1.00;;;;;;;;;;5020564;28;20065;-72
2022/05/16 10:51:08;;;;;;;2.75;1.10;;;;;;;;;;5043937;28;20049;-74
2022/05/16 10:53:39;;;;;;;1.20;0.90;;;;;;;;;;5035610;28;20056;-75
2022/05/16 10:56:11;;;;;;;1.65;1.10;;;;;;;;;;5028407;28;20458;-75
2022/05/16 10:58:46;;;;;;;1.73;1.15;;;;;;;;;;5031277;28;20547;-72
2022/05/16 11:01:20;;;;;;;3.03;1.48;;;;;;;;;;5028976;28;20046;-74
2022/05/16 11:03:56;;;;;;;1.90;1.40;;;;;;;;;;5022760;28;20107;-73
2022/05/16 11:06:41;;;;;;;2.15;1.50;;;;;;;;;;5017622;28;20068;-74
2022/05/16 11:09:12;;;;;;;2.45;1.30;;;;;;;;;;5015015;28;20050;-76
2022/05/16 11:11:45;;;;;;;3.47;1.45;;;;;;;;;;5010918;28;20417;-75
2022/05/16 11:14:17;;;;;;;6.15;1.40;;;;;;;;;;5017723;28;20096;-76
2022/05/16 11:16:46;;;;;;;2.20;1.40;;;;;;;;;;5012089;28;20065;-76
2022/05/16 11:19:22;;;;;;;2.75;1.40;;;;;;;;;;5011274;28;20128;-76
2022/05/16 11:21:56;;;;;;;4.00;1.63;;;;;;;;;;5027912;28;20136;-75
2022/05/16 11:24:34;;;;;;;2.22;1.48;;;;;;;;;;5030013;28;20057;-76
2022/05/16 11:27:07;;;;;;;3.78;1.23;;;;;;;;;;5030859;28;20536;-74
2022/05/16 11:29:41;;;;;;;5.55;1.92;;;;;;;;;;5033900;28;20049;-75
2022/05/16 11:32:25;;;;;;;2.42;1.70;;;;;;;;;;5027671;28;20041;-74
2022/05/16 11:34:58;;;;;;;3.17;1.45;;;;;;;;;;5025470;28;20049;-75
2022/05/16 11:37:37;;;;;;;1.83;1.38;;;;;;;;;;5031161;28;20497;-74
2022/05/16 11:40:08;;;;;;;2.05;1.30;;;;;;;;;;5029889;28;20109;-74
2022/05/16 11:42:42;;;;;;;5.00;1.40;;;;;;;;;;5025230;28;20444;-73
2022/05/16 11:45:18;;;;;;;1.75;1.40;;;;;;;;;;5032293;28;20041;-73
2022/05/16 11:47:50;;;;;;;3.08;1.40;;;;;;;;;;5031295;28;20111;-72
2022/05/16 11:50:41;;;;;;;2.22;1.48;;;;;;;;;;5027425;28;20045;-73
2022/05/16 11:53:23;;;;;;;1.42;1.15;;;;;;;;;;5025842;28;20057;-73
2022/05/16 12:01:32;;;;;;;1.67;0.90;;;;;;;;;;5012902;28;20141;-73
2022/05/16 12:04:06;;;;;;;4.57;1.60;;;;;;;;;;5025589;28;20065;-72
2022/05/16 12:06:36;;;;;;;2.15;1.38;;;;;;;;;;5031592;28;20053;-74
2022/05/16 12:09:16;;;;;;;3.30;1.45;;;;;;;;;;5029248;28;20045;-73
2022/05/16 12:12:02;;;;;;;2.55;1.65;;;;;;;;;;5025277;28;20092;-74
2022/05/16 12:14:33;;;;;;;1.63;1.20;;;;;;;;;;5026673;28;20458;-72
2022/05/16 12:17:17;;;;;;;2.80;1.40;;;;;;;;;;5025876;28;20053;-74
2022/05/16 12:19:52;;;;;;;1.70;1.10;;;;;;;;;;5000802;28;20064;-72
2022/05/16 12:22:22;;;;;;;2.42;1.35;;;;;;;;;;5032101;28;20037;-75
2022/05/16 12:25:09;;;;;;;2.42;1.42;;;;;;;;;;5031628;28;20061;-75
2022/05/16 12:27:39;;;;;;;4.78;1.60;;;;;;;;;;5036628;28;20321;-74
2022/05/16 12:30:10;;;;;;;3.80;1.38;;;;;;;;;;5028651;28;20053;-73
2022/05/16 12:32:53;;;;;;;2.63;1.35;;;;;;;;;;5028954;28;20061;-72
2022/05/16 12:35:40;;;;;;;2.70;1.15;;;;;;;;;;5025611;28;20060;-72
2022/05/16 12:38:10;;;;;;;2.28;1.55;;;;;;;;;;5020672;28;20045;-72
2022/05/16 12:40:48;;;;;;;3.65;1.40;;;;;;;;;;5018118;28;20041;-71
2022/05/16 12:43:23;;;;;;;2.83;1.30;;;;;;;;;;5019647;28;20320;-71
2022/05/16 12:45:51;;;;;;;;;;;;;;;;;;5023819;28;20053;-72
2022/05/16 12:48:38;;;;;;;3.53;1.15;;;;;;;;;;5024115;28;19971;-71
2022/05/16 12:51:25;;;;;;;1.42;1.20;;;;;;;;;;5017528;28;20168;-69
2022/05/16 12:54:07;;;;;;;3.90;1.17;;;;;;;;;;5024410;28;20037;-70
2022/05/16 12:56:43;;;;;;;3.08;1.13;;;;;;;;;;5017901;28;20045;-69
2022/05/16 12:59:16;;;;;;;2.67;1.30;;;;;;;;;;5016711;28;20050;-71
2022/05/16 13:01:47;;;;;;;1.80;1.30;;;;;;;;;;5024889;28;20157;-72
2022/05/16 13:04:22;;;;;;;3.38;1.50;;;;;;;;;;5017322;28;20061;-70
2022/05/16 13:06:55;;;;;;;2.05;1.20;;;;;;;;;;5025583;28;20069;-69
2022/05/16 13:09:41;;;;;;;2.38;1.20;;;;;;;;;;5023783;28;20442;-70
2022/05/16 13:12:16;;;;;;;2.65;1.20;;;;;;;;;;5029138;28;20042;-70
2022/05/16 13:14:44;;;;;;;;;;;;;;;;;;5016915;28;20096;-69
2022/05/16 13:17:32;;;;;;;1.65;1.30;;;;;;;;;;5024903;28;19952;-70
2022/05/16 13:20:02;;;;;;;3.00;1.13;;;;;;;;;;5033088;28;20049;-69
2022/05/16 13:22:31;;;;;;;1.70;1.13;;;;;;;;;;5030141;28;20068;-72
2022/05/16 13:24:59;;;;;;;6.68;1.27;;;;;;;;;;5020873;28;20499;-69
2022/05/16 13:30:17;;;;;;;2.30;1.10;;;;;;;;;;5031255;28;20432;-70
2022/05/16 13:32:46;;;;;;;3.50;1.42;;;;;;;;;;5027526;28;20096;-69
2022/05/16 13:35:16;;;;;;;1.92;1.25;;;;;;;;;;5028854;28;20137;-69
2022/05/16 13:37:46;;;;;;;2.10;1.20;;;;;;;;;;5024911;28;20054;-71
2022/05/16 13:40:18;;;;;;;3.10;1.48;;;;;;;;;;5022412;28;20049;-70
2022/05/16 13:42:48;;;;;;;2.35;1.05;;;;;;;;;;5027499;28;20053;-69
2022/05/16 13:45:21;;;;;;;2.33;1.23;;;;;;;;;;5023884;28;20063;-71
2022/05/16 13:47:50;;;;;;;3.92;1.27;;;;;;;;;;5015874;28;20596;-70
2022/05/16 13:50:27;;;;;;;1.75;1.15;;;;;;;;;;5024975;28;20041;-69
2022/05/16 13:52:56;;;;;;;1.80;1.20;;;;;;;;;;5027334;28;20049;-72
2022/05/16 13:55:25;;;;;;;1.58;1.20;;;;;;;;;;5031482;28;20049;-70
2022/05/16 13:57:55;;;;;;;4.18;1.48;;;;;;;;;;5024319;28;20160;-70
2022/05/16 14:00:36;;;;;;;3.25;1.30;;;;;;;;;;5024305;28;20081;-70
2022/05/16 14:03:09;;;;;;;2.55;1.45;;;;;;;;;;5024521;28;20127;-69
2022/05/16 14:05:39;;;;;;;3.85;1.50;;;;;;;;;;5031881;28;20064;-70
2022/05/16 14:08:18;;;;;;;1.92;1.38;;;;;;;;;;5019570;28;20054;-70
2022/05/16 14:10:47;;;;;;;3.60;1.60;;;;;;;;;;5033363;28;20049;-70
2022/05/16 14:13:19;;;;;;;2.72;1.60;;;;;;;;;;5023502;28;20080;-69
2022/05/16 14:15:51;;;;;;;3.65;1.80;;;;;;;;;;5019600;28;20076;-70
2022/05/16 14:18:25;;;;;;;3.13;1.60;;;;;;;;;;5022455;28;20544;-70
2022/05/16 14:20:55;;;;;;;2.75;1.58;;;;;;;;;;5025953;28;20107;-70
2022/05/16 14:23:43;;;;;;;4.03;1.65;;;;;;;;;;5014857;28;20049;-71
2022/05/16 14:26:19;;;;;;;1.88;1.45;;;;;;;;;;5027120;28;20045;-70
2022/05/16 14:28:51;;;;;;;3.50;1.20;;;;;;;;;;5025288;28;20157;-70
2022/05/16 14:31:21;;;;;;;1.45;1.20;;;;;;;;;;5023089;28;20046;-70
2022/05/16 14:33:55;;;;;;;2.80;1.55;;;;;;;;;;5017274;28;20060;-70
2022/05/16 14:36:25;;;;;;;3.53;1.38;;;;;;;;;;5019629;28;20473;-71
2022/05/16 14:38:54;;;;;;;2.58;1.58;;;;;;;;;;5024900;28;20489;-72
2022/05/16 14:41:23;;;;;;;3.60;1.50;;;;;;;;;;5029890;28;20099;-70
2022/05/16 14:44:04;;;;;;;3.42;1.70;;;;;;;;;;5023553;28;20049;-70
2022/05/16 14:46:50;;;;;;;4.32;1.63;;;;;;;;;;5026479;28;20164;-71
2022/05/16 14:49:23;;;;;;;2.30;1.40;;;;;;;;;;5022739;28;20056;-70
2022/05/16 14:51:51;;;;;;;3.60;1.70;;;;;;;;;;5020696;28;20481;-70
2022/05/16 14:54:21;;;;;;;3.70;1.48;;;;;;;;;;5025944;28;20049;-70
2022/05/16 14:56:50;;;;;;;3.67;2.40;;;;;;;;;;5015962;28;20368;-71
2022/05/16 14:59:20;;;;;;;1.77;1.50;;;;;;;;;;5024046;28;20049;-71
2022/05/16 15:04:35;;;;;;;6.45;1.60;;;;;;;;;;5037203;28;20106;-74
2022/05/16 15:07:06;;;;;;;3.33;1.60;;;;;;;;;;5024712;28;20058;-71
2022/05/16 15:09:35;;;;;;;4.55;1.17;;;;;;;;;;5020773;28;20080;-72
2022/05/16 15:12:08;;;;;;;3.83;1.38;;;;;;;;;;5020081;28;20220;-74
2022/05/16 15:14:39;;;;;;;5.72;1.90;;;;;;;;;;5023913;28;20049;-71
2022/05/16 15:17:08;;;;;;;5.20;1.63;;;;;;;;;;5023978;28;20225;-78
2022/05/16 15:19:39;;;;;;;6.82;1.65;;;;;;;;;;5027907;28;20080;-77
2022/05/16 15:22:09;;;;;;;7.25;1.60;;;;;;;;;;5025036;28;20523;-76
2022/05/16 15:24:39;;;;;;;7.82;1.83;;;;;;;;;;5023959;28;20451;-75
2022/05/16 15:27:16;;;;;;;3.60;1.90;;;;;;;;;;5024604;28;20053;-75
2022/05/16 15:29:46;;;;;;;5.30;1.92;;;;;;;;;;5023235;28;20140;-78
2022/05/16 15:32:15;;;;;;;4.20;1.77;;;;;;;;;;5013946;28;20444;-77
2022/05/16 15:34:44;;;;;;;3.90;1.70;;;;;;;;;;5029689;28;20453;-77
2022/05/16 15:37:16;;;;;;;4.57;1.50;;;;;;;;;;5018836;28;20071;-78
2022/05/16 15:39:49;;;;;;;3.00;1.52;;;;;;;;;;5026921;28;20088;-78
2022/05/16 15:42:18;;;;;;;3.67;1.50;;;;;;;;;;5025746;28;20049;-78
2022/05/16 15:44:49;;;;;;;5.55;1.65;;;;;;;;;;5026052;28;20470;-77